createdAt,value
2019-05-12T00:00:48.177Z,85.10
2019-05-12T00:03:18.869Z,85.60
2019-05-12T00:05:49.208Z,85.80
2019-05-12T00:08:23.562Z,85.50
2019-05-12T00:11:03.047Z,85.50
2019-05-12T00:13:33.124Z,85.70
2019-05-12T00:16:04.334Z,86.00
2019-05-12T00:18:37.744Z,86.00
2019-05-12T00:21:09.624Z,86.10
2019-05-12T00:23:58.267Z,85.90
2019-05-12T00:26:28.358Z,86.60
2019-05-12T00:28:58.812Z,86.30
2019-05-12T00:31:28.591Z,86.30
2019-05-12T00:33:58.818Z,86.70
2019-05-12T00:36:29.360Z,87.20
2019-05-12T00:38:59.440Z,86.50
2019-05-12T00:41:29.520Z,86.70
2019-05-12T00:43:59.593Z,87.60
2019-05-12T00:46:29.484Z,87.10
2019-05-12T00:48:59.436Z,87.60
2019-05-12T00:51:29.373Z,87.70
2019-05-12T00:53:59.118Z,86.50
2019-05-12T00:56:29.081Z,86.70
2019-05-12T00:58:59.154Z,86.30
2019-05-12T01:01:29.219Z,87.10
2019-05-12T01:03:59.126Z,87.10
2019-05-12T01:06:28.997Z,87.90
2019-05-12T01:08:58.967Z,87.50
2019-05-12T01:11:29.026Z,87.40
2019-05-12T01:13:58.969Z,88.00
2019-05-12T01:16:29.073Z,88.60
2019-05-12T01:18:58.989Z,88.20
2019-05-12T01:21:29.058Z,88.80
2019-05-12T01:24:03.264Z,88.50
2019-05-12T01:26:30.380Z,88.30
2019-05-12T01:29:00.140Z,88.20
2019-05-12T01:31:33.049Z,88.20
2019-05-12T01:34:03.220Z,87.50
2019-05-12T01:36:33.232Z,87.60
2019-05-12T01:39:03.305Z,87.50
2019-05-12T01:41:33.242Z,88.20
2019-05-12T01:44:02.981Z,89.00
2019-05-12T01:46:32.973Z,88.50
2019-05-12T01:49:03.048Z,89.20
2019-05-12T01:51:32.800Z,89.20
2019-05-12T01:54:11.725Z,88.70
2019-05-12T01:56:34.355Z,89.00
2019-05-12T01:59:04.216Z,89.50
2019-05-12T02:01:34.104Z,89.80
2019-05-12T02:04:04.170Z,89.50
2019-05-12T02:06:34.064Z,90.20
2019-05-12T02:09:08.082Z,90.50
2019-05-12T02:11:38.179Z,90.70
2019-05-12T02:14:09.197Z,90.60
2019-05-12T02:16:39.148Z,90.70
2019-05-12T02:19:09.402Z,90.80
2019-05-12T02:21:39.181Z,90.50
2019-05-12T02:24:23.008Z,90.90
2019-05-12T02:26:40.558Z,90.70
2019-05-12T02:29:10.409Z,91.30
2019-05-12T02:31:40.187Z,91.00
2019-05-12T02:34:10.321Z,90.40
2019-05-12T02:36:40.309Z,90.50
2019-05-12T02:39:10.368Z,90.60
2019-05-12T02:41:40.431Z,91.00
2019-05-12T02:44:10.544Z,91.00
2019-05-12T02:46:40.500Z,91.10
2019-05-12T02:49:10.590Z,91.10
2019-05-12T02:51:41.030Z,91.20
2019-05-12T02:54:14.224Z,91.20
2019-05-12T02:56:44.978Z,91.30
2019-05-12T02:59:16.367Z,91.30
2019-05-12T03:02:09.954Z,91.60
2019-05-12T03:04:44.208Z,91.20
2019-05-12T03:07:15.298Z,91.30
2019-05-12T03:09:47.545Z,91.20
2019-05-12T03:12:17.586Z,91.50
2019-05-12T03:14:47.424Z,91.40
2019-05-12T03:17:17.145Z,91.40
2019-05-12T03:19:46.919Z,91.20
2019-05-12T03:22:17.789Z,91.10
2019-05-12T03:25:06.215Z,91.20
2019-05-12T03:27:25.638Z,91.30
2019-05-12T03:29:55.293Z,91.50
2019-05-12T03:32:27.831Z,91.40
2019-05-12T03:34:58.229Z,91.90
2019-05-12T03:37:31.305Z,91.90
2019-05-12T03:40:00.448Z,92.00
2019-05-12T03:42:30.488Z,91.90
2019-05-12T03:45:00.454Z,92.10
2019-05-12T03:47:30.422Z,91.80
2019-05-12T03:50:00.517Z,91.70
2019-05-12T03:52:30.527Z,92.00
2019-05-12T03:55:00.564Z,91.60
2019-05-12T03:57:30.540Z,91.60
2019-05-12T04:00:00.696Z,91.80
2019-05-12T04:02:30.583Z,91.70
2019-05-12T04:05:00.718Z,92.10
2019-05-12T04:07:30.570Z,92.10
2019-05-12T04:10:00.669Z,91.60
2019-05-12T04:12:30.763Z,92.10
2019-05-12T04:15:00.837Z,92.00
2019-05-12T04:17:30.619Z,91.70
2019-05-12T04:20:00.600Z,91.80
2019-05-12T04:22:35.237Z,91.90
2019-05-12T04:25:06.138Z,92.00
2019-05-12T04:27:36.286Z,92.10
2019-05-12T04:30:07.195Z,92.00
2019-05-12T04:32:37.135Z,91.80
2019-05-12T04:35:07.158Z,91.90
2019-05-12T04:37:37.218Z,91.70
2019-05-12T04:40:07.293Z,92.10
2019-05-12T04:42:37.361Z,91.90
2019-05-12T04:45:08.211Z,91.70
2019-05-12T04:47:37.915Z,92.00
2019-05-12T04:50:08.023Z,91.90
2019-05-12T04:52:37.686Z,91.90
2019-05-12T04:55:08.204Z,92.20
2019-05-12T04:57:38.229Z,92.00
2019-05-12T05:00:08.426Z,91.70
2019-05-12T05:02:38.546Z,91.90
2019-05-12T05:05:08.753Z,92.00
2019-05-12T05:07:38.758Z,92.30
2019-05-12T05:10:08.962Z,92.00
2019-05-12T05:12:38.798Z,92.10
2019-05-12T05:15:08.841Z,92.40
2019-05-12T05:17:38.741Z,92.50
2019-05-12T05:20:08.813Z,92.60
2019-05-12T05:22:38.802Z,92.30
2019-05-12T05:25:08.818Z,92.10
2019-05-12T05:27:38.502Z,92.60
2019-05-12T05:30:08.743Z,92.40
2019-05-12T05:32:39.084Z,92.60
2019-05-12T05:35:08.901Z,92.20
2019-05-12T05:37:41.451Z,92.40
2019-05-12T05:40:10.848Z,92.60
2019-05-12T05:42:40.709Z,92.70
2019-05-12T05:45:19.647Z,92.70
2019-05-12T05:47:44.292Z,93.10
2019-05-12T05:50:18.346Z,92.70
2019-05-12T05:52:45.521Z,92.60
2019-05-12T05:55:19.921Z,92.70
2019-05-12T05:58:25.913Z,93.00
2019-05-12T06:00:57.100Z,92.70
2019-05-12T06:03:27.913Z,92.80
2019-05-12T06:05:56.109Z,92.90
2019-05-12T06:09:28.668Z,92.70
2019-05-12T06:11:59.101Z,92.40
2019-05-12T06:14:29.799Z,93.00
2019-05-12T06:16:59.519Z,93.00
2019-05-12T06:19:29.209Z,93.10
2019-05-12T06:21:58.929Z,93.20
2019-05-12T06:24:28.625Z,93.20
2019-05-12T06:27:00.823Z,93.50
2019-05-12T06:29:29.802Z,93.00
2019-05-12T06:31:59.982Z,93.10
2019-05-12T06:34:30.925Z,93.10
2019-05-12T06:37:03.103Z,92.70
2019-05-12T06:39:34.364Z,93.20
2019-05-12T06:42:12.368Z,93.10
2019-05-12T06:44:35.987Z,93.20
2019-05-12T06:47:08.145Z,93.50
2019-05-12T06:49:37.187Z,93.40
2019-05-12T06:52:07.344Z,92.80
2019-05-12T06:54:37.087Z,92.50
2019-05-12T06:57:20.905Z,92.80
2019-05-12T06:59:41.994Z,92.40
2019-05-12T07:02:09.822Z,93.00
2019-05-12T07:04:41.203Z,93.30
2019-05-12T07:07:11.352Z,92.30
2019-05-12T07:09:51.936Z,92.90
2019-05-12T07:12:13.736Z,92.80
2019-05-12T07:14:44.073Z,93.30
2019-05-12T07:17:29.151Z,93.30
2019-05-12T07:19:58.859Z,92.80
2019-05-12T07:22:31.831Z,93.50
2019-05-12T07:25:00.024Z,92.50
2019-05-12T07:27:36.716Z,92.50
2019-05-12T07:30:01.315Z,93.00
2019-05-12T07:32:34.249Z,92.80
2019-05-12T07:35:07.055Z,92.90
2019-05-12T07:37:38.339Z,92.90
2019-05-12T07:40:08.131Z,92.50
2019-05-12T07:42:39.563Z,93.50
2019-05-12T07:45:11.464Z,93.70
2019-05-12T07:47:41.127Z,93.50
2019-05-12T07:50:16.255Z,93.30
2019-05-12T07:52:44.177Z,93.40
2019-05-12T07:55:14.862Z,93.30
2019-05-12T07:57:52.925Z,92.70
2019-05-12T08:00:21.154Z,92.60
2019-05-12T08:02:47.827Z,93.00
2019-05-12T08:05:20.072Z,93.60
2019-05-12T08:07:50.492Z,93.40
2019-05-12T08:10:20.457Z,93.30
2019-05-12T08:12:51.069Z,93.40
2019-05-12T08:15:24.496Z,93.10
2019-05-12T08:17:57.761Z,93.60
2019-05-12T08:20:54.048Z,93.50
2019-05-12T08:23:14.095Z,92.50
2019-05-12T08:25:44.006Z,92.70
2019-05-12T08:28:18.336Z,93.20
2019-05-12T08:30:51.833Z,92.80
2019-05-12T08:33:16.537Z,92.70
2019-05-12T08:35:46.219Z,92.90
2019-05-12T08:38:15.943Z,93.40
2019-05-12T08:40:50.705Z,92.80
2019-05-12T08:43:17.393Z,92.80
2019-05-12T08:45:47.122Z,93.00
2019-05-12T08:48:21.605Z,92.90
2019-05-12T08:50:48.634Z,93.50
2019-05-12T08:53:20.891Z,93.10
2019-05-12T08:55:50.083Z,93.00
2019-05-12T08:58:30.173Z,93.30
2019-05-12T09:00:51.390Z,92.50
2019-05-12T09:03:26.726Z,92.30
2019-05-12T09:05:53.701Z,92.40
2019-05-12T09:08:24.400Z,92.30
2019-05-12T09:10:55.559Z,92.60
2019-05-12T09:13:25.760Z,92.30
2019-05-12T09:15:55.626Z,92.30
2019-05-12T09:18:33.475Z,92.10
2019-05-12T09:21:05.236Z,92.40
2019-05-12T09:24:28.639Z,92.70
2019-05-12T09:27:33.524Z,92.00
2019-05-12T09:31:37.390Z,92.50
2019-05-12T09:34:24.047Z,92.00
2019-05-12T10:06:38.757Z,91.40
2019-05-12T10:09:19.652Z,91.70
2019-05-12T10:11:53.907Z,92.20
2019-05-12T10:14:20.072Z,92.40
2019-05-12T10:16:50.031Z,92.50
2019-05-12T10:19:20.004Z,92.10
2019-05-12T10:21:55.220Z,92.30
2019-05-12T10:24:21.398Z,91.80
2019-05-12T10:26:55.318Z,91.90
2019-05-12T10:29:30.686Z,91.50
2019-05-12T10:32:00.115Z,91.60
2019-05-12T10:34:36.029Z,91.50
2019-05-12T10:37:07.601Z,91.10
2019-05-12T10:39:39.869Z,91.40
2019-05-12T10:42:13.708Z,90.80
2019-05-12T10:44:46.877Z,90.80
2019-05-12T10:47:24.006Z,90.90
2019-05-12T10:49:53.958Z,91.30
2019-05-12T10:52:29.374Z,91.10
2019-05-12T10:54:58.024Z,90.80
2019-05-12T10:57:35.338Z,91.20
2019-05-12T11:00:06.556Z,91.20
2019-05-12T11:02:36.566Z,90.60
2019-05-12T11:05:21.242Z,90.30
2019-05-12T11:07:53.974Z,90.60
2019-05-12T11:10:24.191Z,89.60
2019-05-12T11:12:59.075Z,90.90
2019-05-12T11:15:29.125Z,90.50
2019-05-12T11:18:07.059Z,90.90
2019-05-12T11:20:38.851Z,91.20
2019-05-12T11:23:11.216Z,90.20
2019-05-12T11:25:44.486Z,90.50
2019-05-12T11:28:17.547Z,90.70
2019-05-12T11:30:55.319Z,91.10
2019-05-12T11:33:19.595Z,90.60
2019-05-12T11:35:53.878Z,90.80
2019-05-12T11:38:24.404Z,91.40
2019-05-12T11:40:56.334Z,90.60
2019-05-12T11:43:25.685Z,90.60
2019-05-12T11:45:55.464Z,90.50
2019-05-12T11:48:25.185Z,91.00
2019-05-12T11:50:54.901Z,91.00
2019-05-12T11:53:30.973Z,91.00
2019-05-12T11:55:56.121Z,90.70
2019-05-12T11:58:25.889Z,90.90
2019-05-12T12:00:58.572Z,90.80
2019-05-12T12:03:28.603Z,90.90
2019-05-12T12:05:58.358Z,91.20
2019-05-12T12:08:33.657Z,90.80
2019-05-12T12:11:01.202Z,90.80
2019-05-12T12:13:30.868Z,90.90
2019-05-12T12:16:06.029Z,90.00
2019-05-12T12:18:33.782Z,90.60
2019-05-12T12:21:07.531Z,90.80
2019-05-12T12:23:34.987Z,90.80
2019-05-12T12:26:04.739Z,91.20
2019-05-12T12:28:34.559Z,90.90
2019-05-12T12:31:07.485Z,90.60
2019-05-12T12:33:39.251Z,90.70
2019-05-12T12:36:08.896Z,91.00
2019-05-12T12:38:38.698Z,91.30
2019-05-12T12:41:08.384Z,91.90
2019-05-12T12:43:38.145Z,91.30
2019-05-12T12:46:18.001Z,91.40
2019-05-12T12:48:44.804Z,91.80
2019-05-12T12:51:17.382Z,91.70
2019-05-12T12:53:45.867Z,92.20
2019-05-12T12:56:24.332Z,91.50
2019-05-12T12:58:47.180Z,91.60
2019-05-12T13:01:26.722Z,91.00
2019-05-12T13:03:48.342Z,91.20
2019-05-12T13:06:18.049Z,91.60
2019-05-12T13:08:47.885Z,91.80
2019-05-12T13:11:30.490Z,91.50
2019-05-12T13:13:50.136Z,91.40
2019-05-12T13:16:19.865Z,91.20
2019-05-12T13:18:49.623Z,91.10
2019-05-12T13:21:20.866Z,90.20
2019-05-12T13:23:51.179Z,90.40
2019-05-12T13:26:20.966Z,90.10
2019-05-12T13:28:53.156Z,88.50
2019-05-12T13:31:24.199Z,88.70
2019-05-12T13:33:54.788Z,88.80
2019-05-12T13:36:29.379Z,90.70
2019-05-12T13:38:56.253Z,91.20
2019-05-12T13:41:29.229Z,91.10
2019-05-12T13:44:00.034Z,90.50
2019-05-12T13:46:29.898Z,90.30
2019-05-12T13:48:59.952Z,90.90
2019-05-12T13:51:29.741Z,90.50
2019-05-12T13:53:59.510Z,90.50
2019-05-12T13:56:32.961Z,90.70
2019-05-12T13:59:00.551Z,90.80
2019-05-12T14:01:32.068Z,90.40
2019-05-12T14:04:04.032Z,89.80
2019-05-12T14:06:37.974Z,90.40
2019-05-12T14:09:08.227Z,90.60
2019-05-12T14:11:38.026Z,90.50
2019-05-12T14:14:11.378Z,90.40
2019-05-12T14:16:44.541Z,89.60
2019-05-12T14:19:10.429Z,90.00
2019-05-12T14:21:42.518Z,90.40
2019-05-12T14:24:13.749Z,90.00
2019-05-12T14:26:45.420Z,90.70
2019-05-12T14:29:14.230Z,89.70
2019-05-12T14:31:51.098Z,89.90
2019-05-12T14:34:16.547Z,90.00
2019-05-12T14:36:46.888Z,90.00
2019-05-12T14:39:16.602Z,88.70
2019-05-12T14:41:53.287Z,89.20
2019-05-12T14:44:18.808Z,88.70
2019-05-12T14:46:50.659Z,87.60
2019-05-12T14:49:20.425Z,89.30
2019-05-12T14:51:53.536Z,90.10
2019-05-12T14:54:23.927Z,90.00
2019-05-12T14:56:57.652Z,90.30
2019-05-12T14:59:30.167Z,89.20
2019-05-12T15:01:59.692Z,88.20
2019-05-12T15:04:30.836Z,88.40
2019-05-12T15:07:05.894Z,88.70
2019-05-12T15:09:34.008Z,89.60
2019-05-12T15:12:03.679Z,89.80
2019-05-12T15:14:37.916Z,88.40
2019-05-12T15:17:06.342Z,89.00
2019-05-12T15:19:36.057Z,88.60
2019-05-12T15:22:07.780Z,88.90
2019-05-12T15:25:05.887Z,88.80
2019-05-12T15:27:45.238Z,90.40
2019-05-12T15:30:20.356Z,90.30
2019-05-12T15:32:42.138Z,89.20
2019-05-12T15:35:13.697Z,89.70
2019-05-12T15:37:43.825Z,90.00
2019-05-12T15:40:14.974Z,89.10
2019-05-12T15:42:45.459Z,89.60
2019-05-12T15:45:17.103Z,88.60
2019-05-12T15:47:46.991Z,88.90
2019-05-12T15:50:16.954Z,90.20
2019-05-12T15:52:46.648Z,88.90
2019-05-12T15:55:18.261Z,89.70
2019-05-12T15:57:47.809Z,89.90
2019-05-12T16:00:18.010Z,89.80
2019-05-12T16:02:47.843Z,89.70
2019-05-12T16:05:20.085Z,89.80
2019-05-12T16:07:49.163Z,90.50
2019-05-12T16:10:19.323Z,90.40
2019-05-12T16:12:57.912Z,90.50
2019-05-12T16:15:29.263Z,90.40
2019-05-12T16:18:05.803Z,90.30
2019-05-12T16:20:37.459Z,90.30
2019-05-12T16:23:07.539Z,90.50
2019-05-12T16:25:39.630Z,89.70
2019-05-12T16:28:17.581Z,90.30
2019-05-12T16:30:46.882Z,89.00
2019-05-12T16:33:20.646Z,88.90
2019-05-12T16:35:47.051Z,89.20
2019-05-12T16:38:19.934Z,89.70
2019-05-12T16:40:49.834Z,89.40
2019-05-12T16:43:19.560Z,89.40
2019-05-12T16:45:49.288Z,87.60
2019-05-12T16:48:29.346Z,87.90
2019-05-12T16:50:51.771Z,89.30
2019-05-12T16:53:27.526Z,89.60
2019-05-12T16:55:53.357Z,89.40
2019-05-12T16:58:24.401Z,88.90
2019-05-12T17:00:54.546Z,89.00
2019-05-12T17:03:24.306Z,88.70
2019-05-12T17:05:55.740Z,90.20
2019-05-12T17:08:25.508Z,89.10
2019-05-12T17:11:01.015Z,88.90
2019-05-12T17:13:26.728Z,89.70
2019-05-12T17:16:00.073Z,90.20
2019-05-12T17:18:28.058Z,90.10
2019-05-12T17:20:57.762Z,90.20
2019-05-12T17:23:27.484Z,90.00
2019-05-12T17:25:57.243Z,89.40
2019-05-12T17:28:26.951Z,90.00
2019-05-12T17:30:56.689Z,89.60
2019-05-12T17:33:27.622Z,89.70
2019-05-12T17:36:03.054Z,89.70
2019-05-12T17:38:30.556Z,90.10
2019-05-12T17:41:00.897Z,89.00
2019-05-12T17:43:30.823Z,89.30
2019-05-12T17:46:03.648Z,89.60
2019-05-12T17:48:32.121Z,89.60
2019-05-12T17:51:03.312Z,89.30
2019-05-12T17:53:36.175Z,88.80
2019-05-12T17:56:06.497Z,89.10
2019-05-12T17:58:44.224Z,89.40
2019-05-12T18:01:07.783Z,89.80
2019-05-12T18:03:39.392Z,89.50
2019-05-12T18:06:11.501Z,88.90
2019-05-12T18:08:41.230Z,88.60
2019-05-12T18:11:11.832Z,88.50
2019-05-12T18:13:42.681Z,88.50
2019-05-12T18:16:20.370Z,89.00
2019-05-12T18:18:48.294Z,88.10
2019-05-12T18:21:21.480Z,88.80
2019-05-12T18:23:49.736Z,88.30
2019-05-12T18:26:20.658Z,88.40
2019-05-12T18:28:54.403Z,88.90
2019-05-12T18:31:22.054Z,89.30
2019-05-12T18:33:56.715Z,89.10
2019-05-12T18:36:25.457Z,89.10
2019-05-12T18:39:11.679Z,89.00
2019-05-12T18:41:50.728Z,87.80
2019-05-12T18:44:31.360Z,88.00
2019-05-12T18:46:59.893Z,88.40
2019-05-12T18:49:42.012Z,89.10
2019-05-12T18:52:15.984Z,89.40
2019-05-12T18:54:52.335Z,89.90
2019-05-12T18:57:33.645Z,89.90
2019-05-12T18:59:57.130Z,90.20
2019-05-12T19:02:28.287Z,89.40
2019-05-12T19:04:57.094Z,90.00
2019-05-12T19:07:39.790Z,90.00
2019-05-12T19:10:05.689Z,89.40
2019-05-12T19:12:38.029Z,89.40
2019-05-12T19:15:17.331Z,89.80
2019-05-12T19:20:58.470Z,89.40
2019-05-12T19:21:23.721Z,89.60
2019-05-12T19:23:35.004Z,90.10
2019-05-12T19:26:04.818Z,90.00
2019-05-12T19:28:34.517Z,90.30
2019-05-12T19:31:17.036Z,90.10
2019-05-12T19:33:56.651Z,90.00
2019-05-12T19:36:18.215Z,90.00
2019-05-12T19:38:50.042Z,90.00
2019-05-12T19:41:24.494Z,90.00
2019-05-12T19:43:56.152Z,90.10
2019-05-12T19:46:26.135Z,89.90
2019-05-12T19:48:56.077Z,90.70
2019-05-12T19:51:28.274Z,90.50
2019-05-12T19:53:57.893Z,90.20
2019-05-12T19:56:34.813Z,90.10
2019-05-12T19:59:04.210Z,90.60
2019-05-12T20:01:34.570Z,90.90
2019-05-12T20:04:07.362Z,90.80
2019-05-12T20:06:43.953Z,90.10
2019-05-12T20:09:15.638Z,88.80
2019-05-12T20:15:24.126Z,90.00
2019-05-12T20:18:11.606Z,90.00
2019-05-12T20:20:49.171Z,90.30
2019-05-12T20:23:32.946Z,90.40
2019-05-12T20:26:26.901Z,90.10
2019-05-12T20:29:04.393Z,90.60
2019-05-12T20:31:53.778Z,90.20
2019-05-12T20:34:44.089Z,90.10
2019-05-12T20:37:13.088Z,90.70
2019-05-12T20:40:05.469Z,90.50
2019-05-12T20:43:07.335Z,90.30
2019-05-12T20:45:53.770Z,90.50
2019-05-12T20:48:29.206Z,90.00
2019-05-12T20:51:15.431Z,90.00
2019-05-12T20:54:16.849Z,90.00
2019-05-12T20:57:23.139Z,90.20
2019-05-12T21:00:26.567Z,90.50
2019-05-12T21:03:04.909Z,90.60
2019-05-12T21:05:58.163Z,90.40
2019-05-12T21:08:33.822Z,90.00
2019-05-12T21:11:18.573Z,90.00
2019-05-12T21:14:01.103Z,90.20
2019-05-12T21:16:38.961Z,90.10
2019-05-12T21:19:14.351Z,90.00
2019-05-12T21:21:51.146Z,90.20
2019-05-12T21:27:35.196Z,89.60
2019-05-12T21:30:29.272Z,90.10
2019-05-12T21:33:19.746Z,90.10
2019-05-12T21:36:03.653Z,89.80
2019-05-12T21:41:50.725Z,90.00
2019-05-12T21:47:42.487Z,90.00
2019-05-12T21:50:14.007Z,90.40
2019-05-12T21:53:10.193Z,89.90
2019-05-12T21:59:07.212Z,89.70
2019-05-12T22:02:04.630Z,89.20
2019-05-12T22:04:49.286Z,90.10
2019-05-12T22:07:29.580Z,90.50
2019-05-12T22:10:10.318Z,90.80
2019-05-12T22:13:00.593Z,90.60
2019-05-12T22:16:07.941Z,90.60
2019-05-12T22:18:24.411Z,90.80
2019-05-12T22:21:04.484Z,90.80
2019-05-12T22:23:56.356Z,90.80
2019-05-12T22:26:39.735Z,91.40
2019-05-12T22:29:21.053Z,91.20
2019-05-12T22:31:54.179Z,91.10
2019-05-12T22:34:40.340Z,91.20
2019-05-12T22:37:19.611Z,91.40
2019-05-12T22:39:55.000Z,91.40
2019-05-12T22:43:03.873Z,91.60
2019-05-12T22:45:34.929Z,91.30
2019-05-12T22:48:04.931Z,91.30
2019-05-12T22:51:14.242Z,91.50
2019-05-12T22:53:51.217Z,91.00
2019-05-12T22:56:34.100Z,91.20
2019-05-12T22:59:17.210Z,91.50
2019-05-12T23:01:59.792Z,90.90
2019-05-12T23:04:51.194Z,90.90
2019-05-12T23:07:29.925Z,91.10
2019-05-12T23:10:14.362Z,90.90
2019-05-12T23:13:01.926Z,90.90
2019-05-12T23:15:45.201Z,90.90
2019-05-12T23:18:26.895Z,91.20
2019-05-12T23:21:13.497Z,91.10
2019-05-12T23:23:50.071Z,91.30
2019-05-12T23:26:18.212Z,91.20
2019-05-12T23:28:54.388Z,91.30
2019-05-12T23:31:35.928Z,91.30
2019-05-12T23:34:06.407Z,91.30
2019-05-12T23:36:44.022Z,91.30
2019-05-12T23:39:26.289Z,91.40
2019-05-12T23:42:01.025Z,91.20
2019-05-12T23:44:56.515Z,91.40
2019-05-12T23:47:34.316Z,91.40
2019-05-12T23:50:16.253Z,91.40
2019-05-12T23:53:09.954Z,91.40
2019-05-12T23:55:47.332Z,91.10
2019-05-12T23:58:33.865Z,91.20
